CheckWX is a tool to help pilots better visualize weather data.  It is not intended as a substitute for an official pre-flight weather briefing.

09:41:00 UTC

KMTJ METAR
Montrose Regional Airport
Montrose, Colorado, USA
Current

37 mins ago

KMTJ 220904Z AUTO 04004KT 5SM -SN BR OVC008 M02/M03 A3006 RMK AO2 P0000 T10171028
Observed
Jan-22 @ 09:04 UTC
Wind
  • 040° at 4 KTS
Visibility
5 SM
Flight Rules
IFR
Conditions
Light Snow, Mist
Cloud Levels
  • Overcast at 800' AGL
Temperature
-2°C / 28°F
Dewpoint
-3°C / 27°F
Humidity
93%
Altimeter
30.06" Hg
Pressure
1017.92 hPa
Current Rain
0.01"
Previous

48 mins ago

KMTJ 220853Z AUTO 04006KT 4SM -SN BR OVC006 M01/M02 A3006 RMK AO2 SLP180 P0000 60000 T10111022 53004
Observed
Jan-22 @ 08:53 UTC
Wind
  • 040° at 6 KTS
Visibility
4 SM
Flight Rules
IFR
Conditions
Light Snow, Mist
Cloud Levels
  • Overcast at 600' AGL
Temperature
-1°C / 30°F
Dewpoint
-2°C / 28°F
Humidity
93%
Altimeter
30.06" Hg
Pressure
1017.92 hPa
Current Rain
0.01"
Previous

2 hours ago

KMTJ 220801Z AUTO 03004KT 3SM -SN BR OVC006 M01/M02 A3005 RMK AO2 P0000 T10111022
Observed
Jan-22 @ 08:01 UTC
Wind
  • 030° at 4 KTS
Visibility
3 SM
Flight Rules
IFR
Conditions
Light Snow, Mist
Cloud Levels
  • Overcast at 600' AGL
Temperature
-1°C / 30°F
Dewpoint
-2°C / 28°F
Humidity
93%
Altimeter
30.05" Hg
Pressure
1017.62 hPa
Current Rain
0.01"